Time;durP1;ratioP1;P1;durP2;ratioP2;P2;SDS_P1;SDS_P2;PMS_P1;PMS_P2;Temp;Humidity;BMP_temperature;BMP_pressure;BME280_temperature;BME280_humidity;BME280_pressure;Samples;Min_cycle;Max_cycle;Signal;HPM_P1;HPM_P2
2022/04/21 00:01:31;;;;;;;2.38;1.70;;;;;;;;;;5003357;28;20117;-65
2022/04/21 00:03:57;;;;;;;3.20;2.40;;;;;;;;;;4999986;28;20030;-66
2022/04/21 00:06:23;;;;;;;5.50;2.97;;;;;;;;;;5004424;28;20087;-64
2022/04/21 00:08:49;;;;;;;5.32;2.90;;;12.70;99.90;;;;;;5006147;28;20030;-65
2022/04/21 00:11:15;;;;;;;4.85;2.30;;;;;;;;;;5006590;28;20494;-65
2022/04/21 00:13:41;;;;;;;3.30;2.47;;;;;;;;;;4996741;28;20589;-66
2022/04/21 00:16:07;;;;;;;3.00;2.17;;;;;;;;;;5004860;28;20029;-65
2022/04/21 00:18:33;;;;;;;3.60;2.30;;;;;;;;;;5008796;28;20042;-64
2022/04/21 00:21:01;;;;;;;4.88;2.47;;;;;;;;;;5005375;28;20101;-65
2022/04/21 00:23:27;;;;;;;3.60;1.80;;;;;;;;;;5000317;28;20479;-66
2022/04/21 00:25:58;;;;;;;4.78;2.13;;;;;;;;;;5005013;28;20037;-65
2022/04/21 00:28:24;;;;;;;4.55;2.10;;;;;;;;;;5005206;28;20505;-65
2022/04/21 00:30:50;;;;;;;7.10;2.22;;;;;;;;;;5003419;28;20018;-65
2022/04/21 00:33:17;;;;;;;4.05;2.25;;;;;;;;;;5002349;28;20041;-65
2022/04/21 00:35:43;;;;;;;2.45;2.25;;;;;;;;;;5004093;28;20114;-65
2022/04/21 00:38:09;;;;;;;6.10;2.33;;;;;;;;;;5003735;28;20030;-64
2022/04/21 00:40:35;;;;;;;2.53;2.15;;;;;;;;;;5004747;28;20521;-64
2022/04/21 00:43:01;;;;;;;3.85;2.00;;;;;;;;;;4999179;28;20037;-64
2022/04/21 00:45:29;;;;;;;4.90;3.13;;;11.70;99.90;;;;;;5001610;28;20022;-65
2022/04/21 00:47:54;;;;;;;;;;;;;;;;;;5009765;28;20030;-64
2022/04/21 00:50:22;;;;;;;2.72;1.80;;;;;;;;;;5007390;28;19912;-66
2022/04/21 00:52:49;;;;;;;3.42;2.20;;;;;;;;;;4999332;28;20541;-64
2022/04/21 00:55:15;;;;;;;3.47;1.83;;;;;;;;;;5001625;28;20486;-65
2022/04/21 00:57:43;;;;;;;4.15;3.08;;;11.70;99.90;;;;;;5003845;28;20582;-65
2022/04/21 01:00:10;;;;;;;3.85;2.08;;;;;;;;;;5003315;28;20030;-64
2022/04/21 01:02:51;;;;;;;3.88;2.10;;;;;;;;;;5005472;28;20133;-66
2022/04/21 01:05:31;;;;;;;2.70;2.08;;;11.90;99.90;;;;;;5004166;28;20061;-65
2022/04/21 01:08:07;;;;;;;5.20;3.10;;;;;;;;;;5004296;28;20037;-65
2022/04/21 01:10:34;;;;;;;6.18;2.15;;;;;;;;;;5004850;28;20030;-65
2022/04/21 01:13:04;;;;;;;3.28;2.38;;;;;;;;;;5000281;28;20129;-65
2022/04/21 01:15:30;;;;;;;3.00;2.20;;;;;;;;;;5001249;28;20042;-66
2022/04/21 01:17:56;;;;;;;3.05;2.00;;;;;;;;;;5014935;28;20503;-65
2022/04/21 01:20:23;;;;;;;2.50;1.95;;;;;;;;;;5013078;28;20033;-64
2022/04/21 01:22:49;;;;;;;6.20;2.28;;;;;;;;;;5006547;28;20034;-65
2022/04/21 01:25:15;;;;;;;2.67;2.22;;;;;;;;;;5009057;28;20113;-65
2022/04/21 01:27:42;;;;;;;3.55;2.22;;;;;;;;;;5010066;28;20080;-65
2022/04/21 01:30:10;;;;;;;3.53;1.67;;;11.90;99.90;;;;;;5010329;28;20089;-65
2022/04/21 01:32:36;;;;;;;3.00;2.30;;;;;;;;;;5009622;28;20046;-66
2022/04/21 01:35:03;;;;;;;2.30;1.55;;;;;;;;;;5008519;28;20030;-65
2022/04/21 01:42:58;;;;;;;4.43;2.47;;;11.80;99.90;;;;;;5009409;28;20037;-65
2022/04/21 01:45:24;;;;;;;2.75;1.95;;;;;;;;;;5007261;28;20403;-66
2022/04/21 01:47:50;;;;;;;4.10;2.38;;;;;;;;;;5017211;28;20114;-67
2022/04/21 01:50:16;;;;;;;3.65;2.55;;;;;;;;;;5012622;28;20121;-65
2022/04/21 01:52:42;;;;;;;4.15;2.55;;;11.80;99.90;;;;;;5007768;28;20145;-63
2022/04/21 01:55:08;;;;;;;4.13;2.08;;;;;;;;;;5007601;28;20098;-64
2022/04/21 01:57:34;;;;;;;4.18;2.13;;;;;;;;;;5011860;28;20034;-64
2022/04/21 02:00:01;;;;;;;4.20;2.03;;;;;;;;;;5010558;28;20040;-65
2022/04/21 02:02:29;;;;;;;3.42;2.28;;;;;;;;;;5011247;28;20033;-64
2022/04/21 02:04:56;;;;;;;4.53;2.80;;;;;;;;;;5004857;28;20034;-66
2022/04/21 02:07:24;;;;;;;3.20;1.92;;;12.00;99.90;;;;;;5010480;28;20053;-64
2022/04/21 02:09:50;;;;;;;4.85;2.78;;;;;;;;;;5010862;28;20512;-65
2022/04/21 02:12:16;;;;;;;3.53;2.10;;;;;;;;;;5008250;28;20141;-67
2022/04/21 02:14:42;;;;;;;3.65;2.60;;;;;;;;;;5006446;28;20026;-65
2022/04/21 02:17:08;;;;;;;2.53;1.88;;;;;;;;;;5014753;28;20494;-65
2022/04/21 02:19:34;;;;;;;7.25;2.40;;;11.50;99.90;;;;;;5010384;28;20030;-65
2022/04/21 02:22:00;;;;;;;4.88;2.33;;;11.70;99.90;;;;;;5010422;28;20030;-64
2022/04/21 02:24:26;;;;;;;7.30;2.88;;;;;;;;;;5005128;28;20498;-65
2022/04/21 02:26:52;;;;;;;3.72;2.45;;;;;;;;;;5010629;28;20105;-64
2022/04/21 02:29:18;;;;;;;4.47;2.60;;;;;;;;;;5008909;28;20125;-65
2022/04/21 02:31:44;;;;;;;4.30;2.28;;;;;;;;;;5005062;28;20042;-65
2022/04/21 02:34:10;;;;;;;3.15;1.85;;;;;;;;;;5000568;28;20100;-65
2022/04/21 02:36:36;;;;;;;3.55;2.10;;;;;;;;;;5006179;28;20041;-66
2022/04/21 02:39:02;;;;;;;5.55;2.40;;;;;;;;;;5006951;28;20157;-66
2022/04/21 02:41:28;;;;;;;4.13;2.40;;;;;;;;;;5009691;28;20022;-65
2022/04/21 02:43:54;;;;;;;3.53;1.80;;;;;;;;;;5002746;28;20095;-66
2022/04/21 02:46:21;;;;;;;3.80;1.92;;;;;;;;;;5001928;28;20076;-64
2022/04/21 02:48:47;;;;;;;7.30;2.28;;;;;;;;;;5012610;28;20038;-65
2022/04/21 02:51:12;;;;;;;3.47;2.30;;;11.60;99.90;;;;;;5005375;28;20495;-66
2022/04/21 02:59:08;;;;;;;3.10;2.05;;;;;;;;;;5009225;28;20195;-65
2022/04/21 03:01:34;;;;;;;5.32;2.63;;;;;;;;;;5006839;28;20028;-66
2022/04/21 03:04:01;;;;;;;2.80;2.08;;;;;;;;;;5007410;28;20031;-66
2022/04/21 03:06:27;;;;;;;4.32;2.40;;;;;;;;;;5006322;28;20022;-65
2022/04/21 03:08:52;;;;;;;3.95;2.75;;;12.30;99.90;;;;;;5007024;28;20053;-65
2022/04/21 03:11:18;;;;;;;2.95;2.25;;;;;;;;;;5008869;28;20037;-65
2022/04/21 03:13:44;;;;;;;3.80;2.35;;;;;;;;;;5004667;28;20125;-65
2022/04/21 03:16:10;;;;;;;3.55;2.33;;;;;;;;;;5002436;28;20079;-63
2022/04/21 03:18:36;;;;;;;3.75;2.47;;;;;;;;;;5007015;28;20033;-66
2022/04/21 03:26:31;;;;;;;4.07;2.78;;;;;;;;;;5008383;28;20800;-64
2022/04/21 03:28:57;;;;;;;5.05;2.72;;;;;;;;;;5005615;28;20038;-65
2022/04/21 03:31:23;;;;;;;5.85;2.28;;;;;;;;;;5005602;28;20081;-66
2022/04/21 03:33:50;;;;;;;3.25;1.95;;;;;;;;;;5007847;28;20550;-65
2022/04/21 03:36:16;;;;;;;6.00;2.53;;;;;;;;;;5003437;28;20036;-65
2022/04/21 03:38:42;;;;;;;3.63;2.33;;;;;;;;;;5005496;28;20542;-65
2022/04/21 03:41:09;;;;;;;3.10;1.92;;;;;;;;;;5007227;28;20034;-66
2022/04/21 03:43:35;;;;;;;4.07;2.47;;;;;;;;;;5003712;28;20038;-66
2022/04/21 03:46:01;;;;;;;5.70;1.73;;;;;;;;;;5000576;28;20034;-65
2022/04/21 03:48:29;;;;;;;3.95;2.15;;;;;;;;;;5008593;28;20080;-65
2022/04/21 03:50:55;;;;;;;5.35;2.58;;;;;;;;;;5005270;28;20049;-65
2022/04/21 03:53:21;;;;;;;3.60;2.60;;;;;;;;;;5004285;28;20033;-66
2022/04/21 03:55:49;;;;;;;5.90;2.63;;;;;;;;;;5003632;28;20046;-66
2022/04/21 03:58:15;;;;;;;4.32;2.10;;;;;;;;;;5004310;28;20034;-65
2022/04/21 04:00:41;;;;;;;3.22;1.95;;;12.00;99.90;;;;;;5004970;28;20487;-63
2022/04/21 04:03:07;;;;;;;3.78;2.47;;;;;;;;;;5007700;28;20034;-65
2022/04/21 04:05:33;;;;;;;5.03;2.40;;;;;;;;;;5005090;28;20096;-65
2022/04/21 04:10:53;;;;;;;4.53;2.33;;;;;;;;;;5006139;28;20040;-65
2022/04/21 04:13:27;;;;;;;4.63;2.83;;;;;;;;;;5001854;28;20100;-64
2022/04/21 04:15:54;;;;;;;3.05;2.30;;;12.40;99.50;;;;;;5002737;28;20029;-64
2022/04/21 04:18:20;;;;;;;3.70;2.83;;;;;;;;;;5011295;28;20125;-65
2022/04/21 04:20:47;;;;;;;3.00;2.60;;;;;;;;;;5006613;28;20605;-65
2022/04/21 04:23:19;;;;;;;5.78;2.53;;;;;;;;;;5003822;28;20490;-64
2022/04/21 04:25:46;;;;;;;3.65;2.00;;;;;;;;;;5001498;28;20033;-65
2022/04/21 04:28:12;;;;;;;4.18;2.60;;;;;;;;;;5004472;28;20038;-64
2022/04/21 04:30:43;;;;;;;2.92;2.22;;;;;;;;;;5018425;28;20435;-65
2022/04/21 04:33:09;;;;;;;3.00;2.33;;;12.50;99.90;;;;;;5007656;28;20121;-65
2022/04/21 04:35:35;;;;;;;6.30;2.50;;;;;;;;;;5002008;28;20030;-65
2022/04/21 04:38:01;;;;;;;5.25;2.78;;;;;;;;;;5004710;28;20049;-65
2022/04/21 04:40:27;;;;;;;3.50;2.35;;;;;;;;;;5005458;28;20032;-65
2022/04/21 04:42:54;;;;;;;6.10;3.72;;;12.50;99.40;;;;;;5002059;28;20638;-65
2022/04/21 04:48:05;;;;;;;6.53;3.40;;;;;;;;;;5007022;28;20099;-65
2022/04/21 04:50:31;;;;;;;5.38;3.42;;;;;;;;;;5006550;28;20026;-63
2022/04/21 04:52:58;;;;;;;5.65;2.85;;;;;;;;;;5001676;28;20044;-64
2022/04/21 04:55:25;;;;;;;3.50;2.60;;;12.40;99.80;;;;;;5000405;28;20410;-65
2022/04/21 04:57:51;;;;;;;3.08;2.55;;;;;;;;;;5003218;28;20038;-67
2022/04/21 05:00:18;;;;;;;3.53;2.58;;;;;;;;;;5004696;28;20121;-64
2022/04/21 05:02:44;;;;;;;2.72;2.20;;;;;;;;;;5003405;28;20044;-64
2022/04/21 05:05:14;;;;;;;10.77;2.47;;;;;;;;;;5002701;28;20041;-65
2022/04/21 05:07:40;;;;;;;3.00;2.08;;;;;;;;;;5002713;28;20494;-64
2022/04/21 05:10:09;;;;;;;4.65;2.30;;;;;;;;;;5004063;28;20097;-67
2022/04/21 05:12:35;;;;;;;4.78;2.55;;;;;;;;;;5002556;28;20042;-66
2022/04/21 05:15:01;;;;;;;2.72;1.77;;;;;;;;;;5001549;28;20030;-65
2022/04/21 05:17:28;;;;;;;4.03;2.45;;;;;;;;;;5007509;28;20041;-67
2022/04/21 05:19:54;;;;;;;3.17;2.08;;;;;;;;;;5001941;28;20036;-66
2022/04/21 05:22:26;;;;;;;3.28;2.53;;;;;;;;;;4999868;28;20037;-66
2022/04/21 05:24:52;;;;;;;3.17;2.05;;;11.60;99.90;;;;;;5000063;28;20042;-66
2022/04/21 05:27:18;;;;;;;4.82;2.20;;;;;;;;;;5017551;28;20037;-66
2022/04/21 05:32:35;;;;;;;5.15;2.42;;;;;;;;;;5003584;28;20104;-65
2022/04/21 05:35:00;;;;;;;6.47;2.78;;;12.10;99.90;;;;;;4997958;28;20026;-66
2022/04/21 05:37:26;;;;;;;4.43;2.17;;;12.10;99.90;;;;;;5002593;28;20403;-65
2022/04/21 05:39:52;;;;;;;3.33;2.67;;;;;;;;;;5003362;28;20725;-65
2022/04/21 05:42:25;;;;;;;4.80;2.95;;;;;;;;;;5002594;28;20026;-67
2022/04/21 05:44:52;;;;;;;4.15;2.55;;;;;;;;;;4999374;28;20033;-66
2022/04/21 05:47:18;;;;;;;3.45;2.97;;;;;;;;;;5006905;28;20049;-65
2022/04/21 05:49:44;;;;;;;6.03;3.30;;;12.30;99.90;;;;;;5005584;28;20105;-65
2022/04/21 05:52:12;;;;;;;9.43;3.88;;;;;;;;;;5002802;28;20121;-65
2022/04/21 05:54:39;;;;;;;6.15;3.50;;;;;;;;;;5002163;28;20037;-66
2022/04/21 05:57:05;;;;;;;4.32;2.80;;;12.50;99.90;;;;;;5002663;28;20038;-66
2022/04/21 05:59:32;;;;;;;4.82;2.72;;;;;;;;;;5004705;28;20079;-65
2022/04/21 06:01:58;;;;;;;3.28;2.65;;;;;;;;;;5000371;28;20037;-65
2022/04/21 06:04:24;;;;;;;4.57;2.85;;;12.60;99.90;;;;;;5004737;28;20029;-66
2022/04/21 06:06:50;;;;;;;5.82;3.17;;;;;;;;;;5021300;28;20060;-66
2022/04/21 06:09:16;;;;;;;4.97;2.33;;;;;;;;;;5006346;28;20041;-67
2022/04/21 06:11:43;;;;;;;5.22;2.33;;;;;;;;;;5009480;28;20033;-66
2022/04/21 06:14:09;;;;;;;7.93;4.00;;;;;;;;;;5006316;28;20419;-66
2022/04/21 06:16:35;;;;;;;5.40;3.40;;;12.10;99.90;;;;;;4999472;28;20105;-65
2022/04/21 06:19:02;;;;;;;5.28;2.30;;;;;;;;;;5004683;28;20148;-67
2022/04/21 06:21:28;;;;;;;3.85;2.58;;;;;;;;;;5006679;28;20035;-64
2022/04/21 06:23:54;;;;;;;4.65;2.45;;;;;;;;;;5008049;28;20038;-65
2022/04/21 06:26:25;;;;;;;4.97;2.45;;;;;;;;;;5007023;28;20429;-68
2022/04/21 06:28:51;;;;;;;5.45;2.72;;;;;;;;;;5007081;28;20645;-67
2022/04/21 06:31:17;;;;;;;4.55;3.10;;;;;;;;;;5007924;28;20137;-65
2022/04/21 06:33:43;;;;;;;3.10;1.83;;;;;;;;;;5008304;28;20038;-66
2022/04/21 06:36:09;;;;;;;4.53;2.70;;;;;;;;;;5009391;28;20040;-66
2022/04/21 06:38:34;;;;;;;7.03;2.00;;;12.50;99.90;;;;;;5010326;28;20432;-66
2022/04/21 06:41:01;;;;;;;5.00;2.40;;;;;;;;;;5007380;28;20022;-69
2022/04/21 06:48:57;;;;;;;3.35;2.30;;;;;;;;;;5004731;28;20096;-68
2022/04/21 06:51:23;;;;;;;6.35;2.42;;;;;;;;;;4994477;28;20026;-68
2022/04/21 06:53:49;;;;;;;7.72;2.90;;;;;;;;;;5007261;28;20042;-66
2022/04/21 06:56:16;;;;;;;5.72;2.35;;;;;;;;;;4997114;28;20424;-68
2022/04/21 06:58:42;;;;;;;2.85;2.40;;;;;;;;;;4995535;28;20100;-67
2022/04/21 07:01:08;;;;;;;6.78;2.65;;;;;;;;;;4995425;28;20550;-70
2022/04/21 07:03:35;;;;;;;5.25;2.42;;;;;;;;;;4994835;28;20380;-69
2022/04/21 07:06:01;;;;;;;2.43;1.90;;;;;;;;;;4991947;28;20121;-68
2022/04/21 07:08:27;;;;;;;4.82;1.85;;;;;;;;;;4995125;28;20117;-67
2022/04/21 07:10:53;;;;;;;2.47;1.50;;;;;;;;;;4995519;28;20714;-66
2022/04/21 07:13:19;;;;;;;4.20;2.13;;;;;;;;;;4995527;28;20046;-68
2022/04/21 07:15:45;;;;;;;2.00;1.58;;;13.10;99.90;;;;;;4994826;28;20601;-64
2022/04/21 07:18:12;;;;;;;3.83;2.38;;;13.50;98.00;;;;;;5006607;28;20038;-67
2022/04/21 07:20:37;;;;;;;3.67;1.85;;;13.70;97.60;;;;;;4992680;28;20027;-68
2022/04/21 07:23:04;;;;;;;10.05;2.83;;;;;;;;;;5008326;28;20034;-69
2022/04/21 07:25:30;;;;;;;4.30;2.05;;;;;;;;;;4999386;28;20450;-68
2022/04/21 07:27:56;;;;;;;2.65;1.98;;;;;;;;;;5011840;28;20022;-65
2022/04/21 07:30:22;;;;;;;1.85;1.48;;;;;;;;;;4992869;28;20061;-66
2022/04/21 07:32:48;;;;;;;3.45;1.88;;;;;;;;;;4992702;28;20037;-65
2022/04/21 07:35:14;;;;;;;2.53;2.33;;;;;;;;;;4995064;28;20027;-65
2022/04/21 07:37:41;;;;;;;2.10;1.88;;;;;;;;;;4994524;28;20041;-66
2022/04/21 07:40:07;;;;;;;2.20;1.42;;;;;;;;;;5000790;28;20115;-67
2022/04/21 07:42:33;;;;;;;2.25;1.50;;;;;;;;;;5007477;28;20061;-65
2022/04/21 07:45:01;;;;;;;3.47;1.98;;;;;;;;;;5005590;28;20034;-68
2022/04/21 07:47:27;;;;;;;4.53;1.95;;;;;;;;;;4994962;28;20460;-68
2022/04/21 07:49:53;;;;;;;2.45;1.83;;;;;;;;;;4995001;28;20500;-66
2022/04/21 07:55:13;;;;;;;6.40;2.55;;;;;;;;;;4995426;28;20045;-65
2022/04/21 07:57:40;;;;;;;1.60;1.40;;;;;;;;;;4999792;28;20061;-67
2022/04/21 08:00:06;;;;;;;2.13;1.42;;;;;;;;;;4990501;28;20116;-66
2022/04/21 08:02:32;;;;;;;2.25;2.03;;;;;;;;;;4994190;28;20030;-66
2022/04/21 08:04:59;;;;;;;2.55;1.75;;;;;;;;;;4994496;28;20034;-66
2022/04/21 08:07:24;;;;;;;3.15;1.83;;;;;;;;;;4994670;28;20026;-66
2022/04/21 08:09:51;;;;;;;3.08;1.98;;;;;;;;;;4994907;28;20040;-67
2022/04/21 08:12:17;;;;;;;3.45;2.28;;;;;;;;;;5005343;28;20084;-66
2022/04/21 08:14:43;;;;;;;2.55;1.60;;;;;;;;;;5006473;28;20030;-69
2022/04/21 08:17:09;;;;;;;5.43;2.27;;;;;;;;;;4994417;28;20034;-68
2022/04/21 08:19:35;;;;;;;4.22;2.30;;;;;;;;;;4994193;28;20037;-68
2022/04/21 08:22:01;;;;;;;3.03;2.17;;;;;;;;;;4994290;28;20027;-69
2022/04/21 08:32:44;;;;;;;2.58;2.00;;;18.50;94.70;;;;;;5007243;28;20737;-69
2022/04/21 08:35:13;;;;;;;5.32;1.83;;;;;;;;;;4995513;28;20117;-69
2022/04/21 08:37:40;;;;;;;4.93;2.53;;;;;;;;;;4993470;28;20034;-68
2022/04/21 08:40:06;;;;;;;3.47;2.50;;;17.80;82.20;;;;;;4994443;28;20052;-67
2022/04/21 08:42:37;;;;;;;2.65;2.03;;;;;;;;;;4993495;28;20026;-67
2022/04/21 08:45:03;;;;;;;6.90;2.25;;;20.90;92.10;;;;;;4989202;28;20034;-67
2022/04/21 08:47:29;;;;;;;5.40;2.05;;;22.60;76.30;;;;;;4993878;28;20557;-67
2022/04/21 08:50:03;;;;;;;6.32;1.92;;;;;;;;;;4993427;28;20042;-67
2022/04/21 08:52:30;;;;;;;9.52;2.03;;;;;;;;;;4993697;28;20041;-67
2022/04/21 08:54:56;;;;;;;1.77;1.67;;;;;;;;;;4993807;28;20460;-67
2022/04/21 08:57:22;;;;;;;4.75;1.40;;;27.20;49.70;;;;;;4993057;28;20519;-68
2022/04/21 08:59:48;;;;;;;2.10;1.20;;;;;;;;;;4990731;28;20030;-67
2022/04/21 09:02:14;;;;;;;2.33;1.53;;;27.20;58.70;;;;;;4995154;28;20518;-67
2022/04/21 09:04:41;;;;;;;4.68;1.92;;;;;;;;;;4994664;28;20069;-67
2022/04/21 09:07:21;;;;;;;4.70;2.28;;;;;;;;;;4995491;28;20512;-69
2022/04/21 09:10:02;;;;;;;4.35;2.28;;;24.80;51.10;;;;;;4992968;28;20572;-70
2022/04/21 09:12:28;;;;;;;3.17;2.00;;;;;;;;;;4992595;28;20026;-70
2022/04/21 09:14:54;;;;;;;2.22;1.52;;;24.50;72.20;;;;;;4989776;28;20446;-69
2022/04/21 09:17:20;;;;;;;3.70;2.13;;;;;;;;;;4993317;28;20018;-69
2022/04/21 09:19:59;;;;;;;3.88;2.05;;;;;;;;;;4994544;28;20022;-65
2022/04/21 09:22:25;;;;;;;4.22;1.88;;;;;;;;;;4993566;28;20123;-65
2022/04/21 09:24:53;;;;;;;4.07;2.75;;;;;;;;;;4995685;28;20038;-68
2022/04/21 09:27:19;;;;;;;4.88;1.90;;;;;;;;;;5004157;28;20088;-66
2022/04/21 09:29:45;;;;;;;5.15;1.75;;;;;;;;;;4990990;28;20037;-66
2022/04/21 09:32:15;;;;;;;3.72;2.25;;;;;;;;;;4993400;28;20431;-66
2022/04/21 09:34:48;;;;;;;2.22;1.58;;;24.80;52.60;;;;;;4997421;28;20552;-65
2022/04/21 09:37:19;;;;;;;3.38;1.98;;;;;;;;;;4998171;28;20027;-67
2022/04/21 09:39:49;;;;;;;2.60;1.98;;;;;;;;;;4997273;28;20040;-67
2022/04/21 09:42:23;;;;;;;3.33;2.20;;;;;;;;;;5026409;28;20031;-66
2022/04/21 09:47:33;;;;;;;3.35;1.80;;;;;;;;;;5011981;28;20044;-67
2022/04/21 09:50:12;;;;;;;3.38;2.40;;;27.10;45.70;;;;;;4997056;28;20034;-68
2022/04/21 09:52:38;;;;;;;3.78;2.17;;;;;;;;;;5028999;28;20038;-67
2022/04/21 09:55:39;;;;;;;2.70;1.80;;;;;;;;;;5004096;28;20041;-67
2022/04/21 09:58:10;;;;;;;2.70;2.05;;;;;;;;;;5002832;28;20080;-65
2022/04/21 10:00:37;;;;;;;6.18;2.25;;;;;;;;;;4996724;28;20034;-67
2022/04/21 10:03:04;;;;;;;;;;;;;;;;;;4995204;28;20100;-67
2022/04/21 10:05:31;;;;;;;;;;;;;;;;;;4993871;28;20009;-67
2022/04/21 10:07:57;;;;;;;;;;;;;;;;;;4990839;28;19921;-67
2022/04/21 10:10:26;;;;;;;3.58;2.25;;;;;;;;;;4993981;28;19909;-66
2022/04/21 10:12:53;;;;;;;2.67;1.80;;;;;;;;;;4993181;28;20113;-67
2022/04/21 10:15:19;;;;;;;3.88;2.55;;;;;;;;;;4990854;28;20034;-68
2022/04/21 10:17:45;;;;;;;3.65;1.88;;;;;;;;;;4989060;28;20026;-67
2022/04/21 10:20:10;;;;;;;4.57;2.55;;;28.40;61.20;;;;;;4990855;28;20057;-66
2022/04/21 10:22:37;;;;;;;12.77;2.70;;;;;;;;;;4998054;28;20034;-66
2022/04/21 10:25:05;;;;;;;14.68;3.45;;;;;;;;;;4996727;28;20172;-66
2022/04/21 10:27:42;;;;;;;3.38;2.13;;;28.30;44.50;;;;;;5001226;28;20084;-67
2022/04/21 10:30:12;;;;;;;3.40;2.30;;;;;;;;;;4997659;28;20033;-68
2022/04/21 10:32:51;;;;;;;4.10;2.10;;;;;;;;;;5005514;28;20121;-68
2022/04/21 10:35:38;;;;;;;2.85;2.47;;;;;;;;;;5006391;28;20512;-66
2022/04/21 10:38:13;;;;;;;3.28;2.22;;;;;;;;;;5009310;28;20022;-67
2022/04/21 10:40:55;;;;;;;4.63;1.98;;;;;;;;;;5004268;28;20072;-67
2022/04/21 10:43:21;;;;;;;3.83;2.10;;;;;;;;;;5006688;28;20068;-67
2022/04/21 10:46:18;;;;;;;7.53;2.65;;;;;;;;;;5006775;28;20045;-66
2022/04/21 10:48:44;;;;;;;3.72;2.30;;;;;;;;;;5006737;28;20088;-67
2022/04/21 10:51:30;;;;;;;3.28;2.15;;;;;;;;;;5006056;28;20125;-68
2022/04/21 10:59:30;;;;;;;5.13;1.95;;;;;;;;;;5010139;28;20049;-67
2022/04/21 11:01:56;;;;;;;3.83;1.38;;;;;;;;;;4996550;28;20104;-66
2022/04/21 11:04:23;;;;;;;3.80;1.52;;;;;;;;;;4995268;28;20083;-67
2022/04/21 11:06:51;;;;;;;2.38;1.13;;;;;;;;;;5006022;28;20030;-66
2022/04/21 11:09:36;;;;;;;2.78;1.50;;;;;;;;;;4997975;28;20517;-67
2022/04/21 11:12:04;;;;;;;2.05;1.55;;;;;;;;;;4991048;28;20038;-67
2022/04/21 11:14:31;;;;;;;3.38;1.52;;;;;;;;;;4995232;28;20050;-66
2022/04/21 11:16:58;;;;;;;2.97;1.52;;;;;;;;;;5003374;28;20033;-66
2022/04/21 11:19:32;;;;;;;1.98;1.02;;;;;;;;;;5001452;28;20752;-67
2022/04/21 11:22:05;;;;;;;2.60;1.45;;;;;;;;;;4995453;28;20026;-67
2022/04/21 11:24:59;;;;;;;2.53;1.15;;;27.00;39.50;;;;;;4994565;28;20057;-66
2022/04/21 11:27:26;;;;;;;3.35;0.82;;;;;;;;;;4992965;28;20026;-65
2022/04/21 11:29:52;;;;;;;6.57;0.98;;;;;;;;;;4991295;28;20034;-68
2022/04/21 11:32:19;;;;;;;3.70;0.90;;;;;;;;;;4996704;28;20046;-69
2022/04/21 11:35:11;;;;;;;2.45;1.27;;;26.00;38.10;;;;;;4995479;28;20558;-66
2022/04/21 11:37:47;;;;;;;2.72;1.35;;;;;;;;;;4999252;28;20025;-65
2022/04/21 11:40:19;;;;;;;2.40;1.17;;;;;;;;;;5004252;28;20030;-66
2022/04/21 11:42:45;;;;;;;3.17;1.35;;;;;;;;;;5004567;28;20026;-66
2022/04/21 11:45:11;;;;;;;2.33;0.80;;;;;;;;;;5001235;28;20034;-65
2022/04/21 11:47:39;;;;;;;1.92;1.63;;;;;;;;;;4992631;28;20507;-66
2022/04/21 11:50:04;;;;;;;2.78;1.17;;;24.50;52.70;;;;;;4995663;28;20022;-65
2022/04/21 11:52:31;;;;;;;6.63;1.40;;;;;;;;;;4994532;28;20041;-65
2022/04/21 11:55:00;;;;;;;2.75;1.23;;;;;;;;;;4994765;28;20068;-65
2022/04/21 11:57:44;;;;;;;2.78;1.08;;;;;;;;;;4998622;28;20582;-65
2022/04/21 12:00:11;;;;;;;3.42;1.35;;;;;;;;;;4990171;28;20103;-65
2022/04/21 12:08:07;;;;;;;4.07;1.23;;;;;;;;;;4994689;28;20584;-66
2022/04/21 12:10:35;;;;;;;0.82;0.60;;;;;;;;;;4999084;28;20026;-66
2022/04/21 12:13:02;;;;;;;2.65;1.50;;;;;;;;;;4998929;28;20050;-66
2022/04/21 12:15:29;;;;;;;5.97;1.30;;;;;;;;;;4993953;28;20029;-66
2022/04/21 12:18:04;;;;;;;2.17;1.02;;;;;;;;;;4993583;28;20062;-66
2022/04/21 12:20:31;;;;;;;3.80;1.45;;;;;;;;;;4993491;28;20047;-65
2022/04/21 12:22:57;;;;;;;1.35;0.93;;;;;;;;;;4994135;28;20037;-69
2022/04/21 12:25:34;;;;;;;3.05;1.63;;;;;;;;;;4993423;28;20026;-69
2022/04/21 12:28:04;;;;;;;2.17;1.25;;;;;;;;;;5023685;28;20142;-67
2022/04/21 12:30:30;;;;;;;2.58;1.50;;;;;;;;;;4992361;28;20084;-70
2022/04/21 12:32:56;;;;;;;1.65;1.00;;;;;;;;;;4989182;28;20048;-71
2022/04/21 12:35:41;;;;;;;1.33;0.97;;;;;;;;;;4994763;28;20053;-68
2022/04/21 12:40:52;;;;;;;1.48;0.95;;;;;;;;;;4993812;28;20041;-67
2022/04/21 12:43:18;;;;;;;1.40;0.80;;;;;;;;;;4994458;28;20042;-67
2022/04/21 12:45:45;;;;;;;1.67;1.10;;;23.60;58.80;;;;;;4992768;28;20033;-67
2022/04/21 12:48:25;;;;;;;2.80;1.20;;;23.10;39.60;;;;;;4990973;28;20106;-67
2022/04/21 12:50:51;;;;;;;1.05;0.88;;;;;;;;;;4990925;28;20038;-68
2022/04/21 12:53:31;;;;;;;2.05;1.45;;;;;;;;;;4993178;28;20389;-66
2022/04/21 12:56:09;;;;;;;2.75;1.48;;;23.20;40.80;;;;;;5024676;28;20048;-68
2022/04/21 12:58:35;;;;;;;1.75;1.05;;;;;;;;;;4994935;28;20045;-68
2022/04/21 13:01:02;;;;;;;4.60;2.05;;;;;;;;;;4993435;28;20023;-69
2022/04/21 13:03:29;;;;;;;2.88;1.60;;;;;;;;;;5000309;28;20044;-67
2022/04/21 13:05:55;;;;;;;1.98;1.25;;;;;;;;;;4990057;28;20068;-67
2022/04/21 13:08:22;;;;;;;2.03;1.15;;;;;;;;;;4993412;28;20114;-69
2022/04/21 13:10:49;;;;;;;2.40;1.33;;;;;;;;;;5024389;28;20605;-67
2022/04/21 13:13:15;;;;;;;3.55;1.20;;;;;;;;;;4993068;28;20100;-69
2022/04/21 13:15:41;;;;;;;2.83;1.67;;;;;;;;;;4995887;28;20029;-69
2022/04/21 13:18:07;;;;;;;4.97;0.90;;;;;;;;;;4989077;28;20054;-68
2022/04/21 13:23:18;;;;;;;3.55;1.33;;;;;;;;;;4993594;28;20045;-68
2022/04/21 13:25:44;;;;;;;2.05;1.15;;;22.60;60.80;;;;;;4992595;28;20031;-67
2022/04/21 13:28:10;;;;;;;1.65;1.38;;;22.40;41.50;;;;;;5008523;28;20514;-68
2022/04/21 13:30:36;;;;;;;2.07;1.40;;;;;;;;;;4992417;28;20051;-68
2022/04/21 13:35:47;;;;;;;3.53;1.48;;;;;;;;;;5004481;28;20048;-68
2022/04/21 13:38:16;;;;;;;1.60;1.38;;;;;;;;;;4993418;28;20030;-68
2022/04/21 13:40:42;;;;;;;3.05;1.77;;;21.80;61.90;;;;;;4994224;28;20822;-68
2022/04/21 13:43:08;;;;;;;2.40;1.30;;;;;;;;;;4992827;28;20150;-69
2022/04/21 13:45:37;;;;;;;12.30;2.03;;;;;;;;;;4998522;28;20030;-68
2022/04/21 13:48:04;;;;;;;2.20;1.58;;;;;;;;;;4989754;28;20108;-68
2022/04/21 13:50:30;;;;;;;3.27;1.57;;;;;;;;;;4993164;28;20474;-69
2022/04/21 13:52:56;;;;;;;3.22;1.88;;;;;;;;;;4994060;28;20137;-68
2022/04/21 13:55:22;;;;;;;5.80;2.13;;;21.90;62.70;;;;;;4992538;28;20403;-68
2022/04/21 13:57:47;;;;;;;1.60;1.20;;;21.70;50.30;;;;;;4992439;28;20029;-68
2022/04/21 14:00:13;;;;;;;3.67;1.30;;;;;;;;;;4992770;28;20431;-69
2022/04/21 14:02:40;;;;;;;2.17;1.35;;;;;;;;;;4991259;28;20030;-69
2022/04/21 14:05:06;;;;;;;2.22;1.75;;;;;;;;;;4992822;28;20041;-69
2022/04/21 14:07:32;;;;;;;1.60;1.10;;;;;;;;;;5000405;28;20116;-70
2022/04/21 14:09:58;;;;;;;2.25;1.17;;;;;;;;;;5001033;28;20022;-69
2022/04/21 14:12:24;;;;;;;1.48;1.35;;;21.50;57.40;;;;;;4992698;28;20062;-66
2022/04/21 14:14:50;;;;;;;4.63;1.70;;;;;;;;;;4990325;28;20107;-69
2022/04/21 14:17:16;;;;;;;2.60;1.20;;;;;;;;;;5002240;28;20034;-69
2022/04/21 14:19:44;;;;;;;2.22;1.05;;;;;;;;;;4995821;28;20117;-69
2022/04/21 14:22:09;;;;;;;2.53;1.20;;;;;;;;;;4995185;28;20031;-69
2022/04/21 14:24:35;;;;;;;1.70;1.10;;;;;;;;;;5024283;28;20033;-69
2022/04/21 14:27:02;;;;;;;1.52;1.02;;;;;;;;;;5005656;28;20122;-68
2022/04/21 14:29:27;;;;;;;3.50;1.70;;;;;;;;;;5010473;28;20525;-69
2022/04/21 14:31:54;;;;;;;4.95;1.20;;;;;;;;;;5004208;28;20038;-67
2022/04/21 14:34:19;;;;;;;1.77;0.95;;;;;;;;;;5008563;28;20041;-67
2022/04/21 14:36:46;;;;;;;2.45;1.20;;;;;;;;;;5005423;28;20049;-68
2022/04/21 14:45:01;;;;;;;5.50;3.10;;;;;;;;;;5006927;28;20534;-66
2022/04/21 14:47:27;;;;;;;1.13;0.98;;;;;;;;;;5008182;28;20030;-69
2022/04/21 14:49:54;;;;;;;1.77;1.13;;;;;;;;;;5006225;28;20042;-69
2022/04/21 14:52:20;;;;;;;1.83;1.30;;;20.70;49.00;;;;;;5006979;28;20418;-68
2022/04/21 14:54:46;;;;;;;6.97;1.40;;;;;;;;;;5006145;28;20449;-67
2022/04/21 14:57:13;;;;;;;1.75;0.98;;;;;;;;;;5006032;28;20050;-68
2022/04/21 14:59:39;;;;;;;1.43;0.87;;;;;;;;;;5007558;28;20035;-68
2022/04/21 15:02:08;;;;;;;3.70;1.08;;;;;;;;;;5003734;28;20030;-69
2022/04/21 15:04:34;;;;;;;5.72;1.23;;;;;;;;;;4990109;28;20061;-69
2022/04/21 15:07:01;;;;;;;1.67;1.50;;;;;;;;;;5006631;28;20457;-70
2022/04/21 15:09:27;;;;;;;1.27;0.80;;;;;;;;;;5006317;28;20033;-69
2022/04/21 15:11:53;;;;;;;1.30;1.00;;;;;;;;;;5006853;28;20045;-70
2022/04/21 15:14:19;;;;;;;1.73;1.05;;;;;;;;;;5008185;28;20130;-69
2022/04/21 15:16:45;;;;;;;2.58;1.17;;;;;;;;;;5002603;28;20050;-69
2022/04/21 15:19:12;;;;;;;1.60;1.13;;;;;;;;;;5002292;28;20035;-69
2022/04/21 15:21:38;;;;;;;5.20;1.45;;;20.80;61.90;;;;;;4995322;28;20022;-69
2022/04/21 15:24:04;;;;;;;7.18;2.45;;;;;;;;;;4991503;28;20030;-70
2022/04/21 15:26:31;;;;;;;1.40;1.20;;;;;;;;;;5010266;28;20030;-70
2022/04/21 15:28:56;;;;;;;2.35;1.30;;;20.40;65.10;;;;;;4996193;28;20515;-68
2022/04/21 15:31:23;;;;;;;2.65;1.52;;;;;;;;;;4997768;28;20037;-69
2022/04/21 15:33:49;;;;;;;6.10;1.55;;;;;;;;;;5027826;28;20045;-69
2022/04/21 15:36:15;;;;;;;1.83;1.05;;;;;;;;;;4991949;28;20030;-69